Time;durP1;ratioP1;P1;durP2;ratioP2;P2;SDS_P1;SDS_P2;PMS_P1;PMS_P2;Temp;Humidity;BMP_temperature;BMP_pressure;BME280_temperature;BME280_humidity;BME280_pressure;Samples;Min_cycle;Max_cycle;Signal;HPM_P1;HPM_P2
2023/03/19 00:01:44;;;;;;;0.17;0.17;;;;;;;6.92;100.00;100073.50;6124041;23;20349;-92
2023/03/19 00:04:10;;;;;;;0.68;0.68;;;;;;;6.90;100.00;100073.16;6098190;23;20100;-89
2023/03/19 00:06:35;;;;;;;1.75;1.13;;;;;;;6.88;100.00;100073.53;6073812;23;20013;-89
2023/03/19 00:09:01;;;;;;;1.60;1.35;;;;;;;6.90;100.00;100075.91;6075159;23;20017;-89
2023/03/19 00:11:26;;;;;;;1.67;0.98;;;;;;;6.81;100.00;100059.06;6097981;23;20088;-89
2023/03/19 00:13:52;;;;;;;0.73;0.73;;;;;;;6.78;100.00;100065.41;6097780;23;20147;-89
2023/03/19 00:16:18;;;;;;;1.08;1.00;;;;;;;6.81;100.00;100070.09;6098983;23;20061;-91
2023/03/19 00:18:43;;;;;;;1.27;1.20;;;;;;;6.81;100.00;100076.38;6072166;23;20068;-91
2023/03/19 00:21:09;;;;;;;0.20;0.20;;;;;;;6.76;100.00;100073.28;6098917;23;20024;-93
2023/03/19 00:23:35;;;;;;;0.68;0.68;;;;;;;6.77;100.00;100069.34;6073187;23;20014;-91
2023/03/19 00:26:02;;;;;;;0.60;0.60;;;;;;;6.70;100.00;100063.91;6098583;23;20040;-91
2023/03/19 00:28:29;;;;;;;1.30;0.85;;;;;;;6.71;100.00;100059.97;6099242;23;20069;-92
2023/03/19 00:30:54;;;;;;;0.77;0.63;;;;;;;6.70;100.00;100061.16;6097298;23;20013;-92
2023/03/19 00:33:20;;;;;;;0.65;0.65;;;;;;;6.57;100.00;100047.13;6076434;23;20426;-91
2023/03/19 00:35:47;;;;;;;0.70;0.68;;;;;;;6.68;100.00;100060.78;6098134;23;20096;-91
2023/03/19 00:38:12;;;;;;;0.82;0.82;;;;;;;6.66;100.00;100057.66;6074804;23;20092;-91
2023/03/19 00:40:38;;;;;;;0.43;0.30;;;;;;;6.63;100.00;100048.25;6099169;23;20016;-91
2023/03/19 00:43:03;;;;;;;0.43;0.43;;;;;;;6.51;100.00;100043.25;6096544;23;20018;-91
2023/03/19 00:45:29;;;;;;;1.45;0.90;;;;;;;6.36;100.00;100034.31;6098762;23;20025;-91
2023/03/19 00:47:56;;;;;;;3.83;1.42;;;;;;;6.55;100.00;100057.78;6098069;23;20010;-90
2023/03/19 00:50:24;;;;;;;1.73;0.88;;;;;;;6.55;100.00;100063.28;6074397;23;20021;-91
2023/03/19 00:52:51;;;;;;;1.08;0.85;;;;;;;6.52;100.00;100053.84;6074401;23;20021;-92
2023/03/19 00:55:17;;;;;;;1.13;1.08;;;;;;;6.45;100.00;100048.41;6122426;23;20352;-92
2023/03/19 00:57:43;;;;;;;1.38;1.08;;;;;;;6.25;100.00;100022.63;6075104;23;20017;-91
2023/03/19 01:00:09;;;;;;;1.05;0.70;;;;;;;6.35;100.00;100043.03;6122987;23;20017;-91
2023/03/19 01:02:35;;;;;;;0.52;0.52;;;;;;;6.42;100.00;100057.50;6122755;23;20396;-90
2023/03/19 01:05:01;;;;;;;0.85;0.85;;;;;;;6.15;100.00;100006.97;6141933;23;20044;-91
2023/03/19 01:07:27;;;;;;;1.48;1.05;;;;;;;6.27;100.00;100003.72;6120674;23;20447;-91
2023/03/19 01:09:52;;;;;;;0.45;0.45;;;;;;;6.35;100.00;100032.00;6123057;23;20152;-92
2023/03/19 01:12:18;;;;;;;0.40;0.40;;;;;;;6.31;100.00;100032.00;6121811;23;20020;-91
2023/03/19 01:14:44;;;;;;;0.90;0.73;;;;;;;6.29;100.00;100028.09;6120540;23;20435;-92
2023/03/19 01:17:10;;;;;;;0.40;0.38;;;;;;;6.26;100.00;100026.97;6099147;23;20013;-91
2023/03/19 01:19:36;;;;;;;1.80;1.20;;;;;;;6.24;100.00;100026.56;6121244;23;20001;-91
2023/03/19 01:22:03;;;;;;;0.43;0.43;;;;;;;6.20;100.00;100020.31;6122458;23;20494;-90
2023/03/19 01:24:32;;;;;;;0.93;0.90;;;;;;;6.21;100.00;100030.16;6098995;23;20018;-91
2023/03/19 01:26:58;;;;;;;1.98;0.75;;;;;;;6.19;100.00;100020.75;6098321;23;20017;-91
2023/03/19 01:29:32;;;;;;;0.20;0.20;;;;;;;6.19;100.00;100024.25;6126298;23;20024;-89
2023/03/19 01:32:07;;;;;;;0.75;0.75;;;;;;;6.19;100.00;100021.50;6146306;23;20832;-90
2023/03/19 01:34:41;;;;;;;0.90;0.90;;;;;;;6.12;100.00;100007.81;6126405;23;20080;-89
2023/03/19 01:37:09;;;;;;;0.28;0.28;;;;;;;6.02;100.00;100014.19;6122851;23;20041;-89
2023/03/19 01:39:35;;;;;;;1.30;1.20;;;;;;;6.14;100.00;100026.69;6124473;23;20029;-89
2023/03/19 01:42:05;;;;;;;2.42;2.22;;;;;;;6.11;100.00;100022.75;6126756;23;20432;-89
2023/03/19 01:44:48;;;;;;;0.52;0.52;;;;;;;6.14;100.00;100034.94;6125759;23;20013;-88
2023/03/19 01:47:34;;;;;;;0.73;0.57;;;;;;;6.12;100.00;100029.84;6106294;23;20063;-89
2023/03/19 01:50:26;;;;;;;1.02;1.02;;;;;;;6.10;100.00;100026.72;6106745;23;20021;-88
2023/03/19 01:53:30;;;;;;;0.15;0.15;;;;;;;6.08;100.00;100020.81;6138269;23;20024;-89
2023/03/19 01:56:10;;;;;;;0.60;0.52;;;;;;;5.99;100.00;100010.28;6100159;23;20367;-89
2023/03/19 01:58:41;;;;;;;1.05;1.05;;;;;;;5.99;100.00;100015.78;6148430;23;20036;-89
2023/03/19 02:16:19;;;;;;;0.17;0.17;;;;;;;5.84;100.00;100003.28;6117634;23;20037;-88
2023/03/19 02:18:45;;;;;;;0.60;0.60;;;;;;;5.68;100.00;99982.97;6129305;23;20577;-88
2023/03/19 02:21:16;;;;;;;0.65;0.65;;;;;;;5.82;100.00;100015.91;6179110;23;20031;-87
2023/03/19 02:23:49;;;;;;;2.45;2.25;;;;;;;5.88;100.00;100025.31;6130029;23;20020;-87
2023/03/19 02:26:19;;;;;;;0.93;0.80;;;;;;;5.83;100.00;100025.72;6179156;23;20013;-88
2023/03/19 02:28:49;;;;;;;0.40;0.40;;;;;;;5.67;100.00;100004.22;6153791;23;20100;-87
2023/03/19 02:31:20;;;;;;;2.50;1.52;;;;;;;5.70;100.00;100014.44;6155374;23;20017;-88
2023/03/19 02:33:57;;;;;;;1.05;0.98;;;;;;;5.74;100.00;100020.69;6177851;23;20005;-87
2023/03/19 02:36:23;;;;;;;3.67;1.83;;;;;;;5.60;100.00;100002.31;6180381;23;20021;-88
2023/03/19 02:38:48;;;;;;;2.63;1.35;;;;;;;5.62;100.00;100024.69;6153169;23;20007;-87
2023/03/19 02:41:14;;;;;;;0.63;0.63;;;;;;;5.57;100.00;100016.88;6129336;23;20041;-88
2023/03/19 02:43:40;;;;;;;1.48;1.38;;;;;;;5.57;100.00;100021.59;6129576;23;20094;-87
2023/03/19 02:46:10;;;;;;;0.32;0.32;;;;;;;5.53;100.00;100027.13;6176225;23;20017;-87
2023/03/19 02:48:36;;;;;;;3.17;1.35;;;;;;;5.50;100.00;100025.16;6155264;23;20009;-87
2023/03/19 02:51:03;;;;;;;0.55;0.55;;;;;;;5.51;100.00;100029.47;6152953;23;20024;-87
2023/03/19 02:53:28;;;;;;;1.02;1.00;;;;;;;5.41;100.00;100016.59;6153573;23;20017;-87
2023/03/19 02:55:54;;;;;;;0.68;0.68;;;;;;;5.38;100.00;100020.13;6153488;23;20169;-87
2023/03/19 02:58:20;;;;;;;0.68;0.50;;;;;;;5.35;100.00;100022.91;6154016;23;20108;-87
2023/03/19 03:00:45;;;;;;;0.55;0.55;;;;;;;5.09;100.00;99986.53;6178323;23;20013;-87
2023/03/19 03:03:11;;;;;;;1.13;1.13;;;;;;;5.32;100.00;100019.00;6180924;23;20462;-87
2023/03/19 03:05:37;;;;;;;2.28;0.80;;;;;;;5.22;100.00;100002.56;6159432;23;20060;-87
2023/03/19 03:08:03;;;;;;;0.13;0.13;;;;;;;5.39;100.00;100035.44;6183470;23;20036;-87
2023/03/19 03:10:29;;;;;;;0.52;0.52;;;;;;;5.05;100.00;99994.00;6182367;23;20445;-87
2023/03/19 03:12:55;;;;;;;2.42;2.15;;;;;;;5.27;100.00;100033.16;6207925;23;20013;-88
2023/03/19 03:15:21;;;;;;;1.63;1.45;;;;;;;5.25;100.00;100018.25;6158905;23;20085;-87
2023/03/19 03:17:46;;;;;;;0.22;0.22;;;;;;;5.35;100.00;100036.66;6182035;23;20095;-87
2023/03/19 03:20:14;;;;;;;1.02;0.98;;;;;;;5.21;100.00;100029.28;6183199;23;20435;-88
2023/03/19 03:22:40;;;;;;;1.52;1.42;;;;;;;5.28;100.00;100047.69;6183102;23;20485;-87
2023/03/19 03:25:07;;;;;;;1.58;1.10;;;;;;;5.23;100.00;100045.34;6208807;23;20013;-87
2023/03/19 03:27:33;;;;;;;0.57;0.40;;;;;;;5.16;100.00;100035.97;6208282;23;20481;-87
2023/03/19 03:29:59;;;;;;;0.10;0.10;;;;;;;5.14;100.00;100037.53;6182079;23;20307;-87
2023/03/19 03:32:28;;;;;;;2.30;2.10;;;;;;;5.13;100.00;100041.50;6209181;23;20498;-88
2023/03/19 03:34:54;;;;;;;0.77;0.63;;;;;;;5.02;100.00;100024.25;6182732;23;20727;-87
2023/03/19 03:37:20;;;;;;;1.05;1.05;;;;;;;4.96;100.00;100020.34;6208598;23;20047;-87
2023/03/19 03:39:45;;;;;;;0.80;0.80;;;;;;;5.04;100.00;100033.69;6184324;23;20016;-87
2023/03/19 03:42:11;;;;;;;0.85;0.80;;;;;;;5.07;100.00;100054.06;6183257;23;20019;-87
2023/03/19 03:44:39;;;;;;;0.13;0.13;;;;;;;5.01;100.00;100039.97;6159825;23;20040;-87
2023/03/19 03:47:05;;;;;;;1.65;1.40;;;;;;;4.90;100.00;100033.72;6183110;23;20040;-87
2023/03/19 03:49:31;;;;;;;0.75;0.75;;;;;;;4.86;100.00;100034.91;6181330;23;20031;-87
2023/03/19 03:51:56;;;;;;;0.70;0.70;;;;;;;4.67;100.00;100016.94;6182985;23;20108;-88
2023/03/19 03:54:22;;;;;;;0.73;0.73;;;;;;;4.93;100.00;100051.41;6182754;23;20457;-87
2023/03/19 03:56:49;;;;;;;0.10;0.10;;;;;;;4.90;100.00;100049.41;6182823;23;20024;-87
2023/03/19 03:59:15;;;;;;;1.38;1.27;;;;;;;4.91;100.00;100051.00;6159235;23;20016;-88
2023/03/19 04:01:41;;;;;;;1.27;1.20;;;;;;;4.90;100.00;100052.16;6157095;23;20341;-87
2023/03/19 04:04:06;;;;;;;0.75;0.68;;;;;;;4.81;100.00;100043.59;6183335;23;20063;-88
2023/03/19 04:06:33;;;;;;;1.10;1.10;;;;;;;4.89;100.00;100056.13;6183782;23;20323;-88
2023/03/19 04:09:12;;;;;;;0.50;0.50;;;;;;;4.63;100.00;100008.69;6185428;23;20055;-87
2023/03/19 04:11:37;;;;;;;0.52;0.52;;;;;;;4.78;100.00;100041.63;6184013;23;20013;-87
2023/03/19 04:14:04;;;;;;;0.85;0.85;;;;;;;4.77;100.00;100035.34;6181445;23;20008;-88
2023/03/19 04:16:32;;;;;;;1.50;1.40;;;;;;;4.75;100.00;100036.91;6184007;23;20103;-87
2023/03/19 04:18:57;;;;;;;1.60;1.50;;;;;;;4.69;100.00;100031.06;6157992;23;20008;-87
2023/03/19 04:21:23;;;;;;;0.93;0.77;;;;;;;4.66;100.00;100034.59;6158358;23;20023;-88
2023/03/19 04:23:49;;;;;;;1.15;0.90;;;;;;;4.63;100.00;100033.44;6207093;23;20039;-87
2023/03/19 04:26:15;;;;;;;0.93;0.90;;;;;;;4.57;100.00;100020.50;6182703;23;20024;-87
2023/03/19 04:28:41;;;;;;;3.72;0.90;;;;;;;4.61;100.00;100033.03;6158665;23;20019;-87
2023/03/19 04:31:08;;;;;;;1.45;1.35;;;;;;;4.54;100.00;100035.81;6184135;23;20394;-87
2023/03/19 04:33:39;;;;;;;0.32;0.32;;;;;;;4.49;100.00;100019.72;6184254;23;20012;-87
2023/03/19 04:36:04;;;;;;;0.30;0.30;;;;;;;4.55;100.00;100047.56;6183108;23;20009;-88
2023/03/19 04:38:30;;;;;;;1.17;1.10;;;;;;;4.34;100.00;100018.19;6182585;23;20047;-87
2023/03/19 04:40:56;;;;;;;1.08;0.38;;;;;;;4.32;100.00;100006.03;6183426;23;20126;-88
2023/03/19 04:43:22;;;;;;;1.27;1.23;;;;;;;4.22;100.00;100008.41;6181706;23;20062;-87
2023/03/19 04:45:50;;;;;;;1.65;1.55;;;;;;;4.46;100.00;100053.47;6179950;23;20019;-88
2023/03/19 04:48:17;;;;;;;1.20;1.15;;;;;;;4.43;100.00;100048.78;6158831;23;20099;-88
2023/03/19 04:50:44;;;;;;;1.15;0.88;;;;;;;4.44;100.00;100053.09;6180946;23;20005;-87
2023/03/19 04:53:10;;;;;;;1.27;1.17;;;;;;;4.24;100.00;100024.50;6183432;23;20409;-88
2023/03/19 04:55:36;;;;;;;0.40;0.40;;;;;;;4.37;100.00;100044.84;6158707;23;20016;-88
2023/03/19 04:58:07;;;;;;;0.60;0.60;;;;;;;4.34;100.00;100037.41;6183882;23;20342;-88
2023/03/19 05:00:35;;;;;;;0.30;0.30;;;;;;;4.33;100.00;100044.06;6207415;23;20107;-87
2023/03/19 05:03:01;;;;;;;0.82;0.80;;;;;;;4.20;100.00;100024.50;6157637;23;20066;-88
2023/03/19 05:05:29;;;;;;;1.88;1.05;;;;;;;4.30;100.00;100044.88;6160252;23;20021;-88
2023/03/19 05:07:56;;;;;;;2.08;1.83;;;;;;;4.27;100.00;100039.38;6184348;23;20028;-87
2023/03/19 05:10:23;;;;;;;0.68;0.68;;;;;;;4.15;100.00;100032.34;6209492;23;20869;-88
2023/03/19 05:12:49;;;;;;;3.30;0.75;;;;;;;4.24;100.00;100035.47;6185696;23;20009;-88
2023/03/19 05:15:15;;;;;;;2.10;2.00;;;;;;;3.97;100.00;99998.63;6184419;23;20024;-87
2023/03/19 05:17:50;;;;;;;4.28;3.47;;;;;;;4.19;100.00;100038.63;6186111;23;20041;-87
2023/03/19 05:20:20;;;;;;;1.45;1.35;;;;;;;4.10;100.00;100019.78;6184322;23;20020;-87
2023/03/19 05:23:01;;;;;;;0.68;0.68;;;;;;;4.21;100.00;100041.72;6209786;23;20071;-87
2023/03/19 05:26:02;;;;;;;1.35;1.25;;;;;;;4.22;100.00;100037.81;6201106;23;20431;-87
2023/03/19 05:28:50;;;;;;;;;;;;;;;4.23;100.00;100039.38;6188330;23;20025;-88
2023/03/19 05:31:20;;;;;;;3.95;2.42;;;;;;;4.11;100.00;100021.38;6161394;23;20356;-87
2023/03/19 05:33:49;;;;;;;1.60;1.45;;;;;;;4.29;100.00;100048.03;6160446;23;20127;-87
2023/03/19 05:36:16;;;;;;;1.67;1.58;;;;;;;4.32;100.00;100045.28;6185100;23;20398;-87
2023/03/19 05:38:59;;;;;;;2.35;1.10;;;;;;;4.23;100.00;100018.22;6188219;23;20040;-88
2023/03/19 05:41:31;;;;;;;2.30;1.20;;;;;;;4.47;100.00;100035.03;6185962;23;20462;-87
2023/03/19 05:44:01;;;;;;;1.60;1.50;;;;;;;4.53;100.00;100030.72;6183719;23;20445;-88
2023/03/19 05:46:53;;;;;;;0.80;0.80;;;;;;;4.60;100.00;100039.72;6165075;23;20438;-87
2023/03/19 05:49:21;;;;;;;1.50;1.40;;;;;;;4.38;100.00;100002.50;6160850;23;20099;-87
2023/03/19 05:51:46;;;;;;;0.90;0.90;;;;;;;4.73;100.00;100033.81;6182332;23;20107;-88
2023/03/19 05:54:12;;;;;;;0.45;0.45;;;;;;;4.68;100.00;100033.03;6183402;23;20016;-87
2023/03/19 05:56:58;;;;;;;1.50;1.40;;;;;;;4.79;100.00;100032.19;6207605;23;20009;-87
2023/03/19 05:59:37;;;;;;;2.22;2.05;;;;;;;4.78;100.00;100008.63;6189135;23;20012;-87
2023/03/19 06:02:18;;;;;;;0.88;0.60;;;;;;;4.97;100.00;100043.91;6172127;23;20024;-87
2023/03/19 06:04:44;;;;;;;0.35;0.35;;;;;;;4.97;100.00;100022.72;6162737;23;20021;-87
2023/03/19 06:07:10;;;;;;;1.38;1.33;;;;;;;5.15;100.00;100025.38;6160055;23;20316;-87
2023/03/19 06:09:36;;;;;;;1.23;1.20;;;;;;;5.28;100.00;100042.97;6184071;23;20019;-88
2023/03/19 06:12:02;;;;;;;0.90;0.90;;;;;;;5.39;100.00;100037.41;6183348;23;20327;-87
2023/03/19 06:15:00;;;;;;;1.50;1.45;;;;;;;5.48;100.00;100040.50;6189146;23;20027;-88
2023/03/19 06:17:43;;;;;;;2.22;2.03;;;;;;;5.59;100.00;100042.00;6185950;23;20395;-87
2023/03/19 06:20:11;;;;;;;3.60;0.93;;;;;;;5.71;100.00;100038.00;6185057;23;20346;-87
2023/03/19 06:22:37;;;;;;;0.88;0.80;;;;;;;5.89;100.00;100043.41;6187492;23;20013;-88
2023/03/19 06:25:05;;;;;;;2.08;1.02;;;;;;;5.97;100.00;100051.22;6168697;23;20095;-88
2023/03/19 06:27:34;;;;;;;3.97;1.83;;;;;;;5.91;100.00;100041.00;6183688;23;20016;-88
2023/03/19 06:30:13;;;;;;;2.10;2.00;;;;;;;6.05;100.00;100062.94;6187931;23;20335;-87
2023/03/19 06:32:40;;;;;;;1.35;1.25;;;;;;;6.12;100.00;100071.13;6184344;23;20020;-87
2023/03/19 06:35:09;;;;;;;1.52;1.33;;;;;;;6.05;100.00;100043.66;6185658;23;20008;-87
2023/03/19 06:37:36;;;;;;;1.35;1.05;;;;;;;6.19;100.00;100065.56;6183916;23;20021;-88
2023/03/19 06:40:03;;;;;;;0.80;0.80;;;;;;;6.23;100.00;100069.06;6208674;23;20021;-87
2023/03/19 06:42:29;;;;;;;5.40;1.88;;;;;;;6.28;100.00;100079.66;6159887;23;20016;-88
2023/03/19 06:44:55;;;;;;;4.03;1.80;;;;;;;6.34;100.00;100075.28;6210476;23;20013;-88
2023/03/19 06:47:21;;;;;;;0.47;0.47;;;;;;;6.41;100.00;100069.72;6210011;23;20004;-87
2023/03/19 06:49:47;;;;;;;2.35;1.20;;;;;;;6.52;100.00;100080.63;6183225;23;20391;-87
2023/03/19 06:52:12;;;;;;;1.25;1.23;;;;;;;6.69;100.00;100087.16;6185976;23;20122;-88
2023/03/19 06:54:38;;;;;;;0.38;0.38;;;;;;;6.78;100.00;100040.59;6160674;23;20139;-87
2023/03/19 06:57:03;;;;;;;0.52;0.45;;;;;;;6.85;100.00;100029.47;6185363;23;20016;-87
2023/03/19 06:59:29;;;;;;;1.40;1.35;;;;;;;7.21;100.00;100049.91;6160278;23;20103;-87
2023/03/19 07:01:54;;;;;;;1.08;0.82;;;;;;;7.46;100.00;100083.47;6179352;23;20074;-87
2023/03/19 07:04:20;;;;;;;1.30;1.13;;;;;;;7.38;100.00;100087.53;6158028;23;20020;-86
2023/03/19 07:06:46;;;;;;;0.70;0.70;;;;;;;7.42;100.00;100074.47;6208247;23;20071;-87
2023/03/19 07:09:11;;;;;;;0.73;0.73;;;;;;;7.27;100.00;100081.38;6183040;23;20027;-87
2023/03/19 07:11:37;;;;;;;0.85;0.85;;;;;;;7.36;100.00;100062.31;6158064;23;20012;-86
2023/03/19 07:14:03;;;;;;;0.73;0.73;;;;;;;7.22;100.00;100064.47;6182716;23;20020;-87
2023/03/19 07:16:29;;;;;;;11.80;1.40;;;;;;;7.29;100.00;100089.22;6181400;23;20027;-86
2023/03/19 07:18:55;;;;;;;1.92;1.52;;;;;;;7.45;100.00;100081.13;6182434;23;20021;-87
2023/03/19 07:21:21;;;;;;;1.25;1.17;;;;;;;7.68;100.00;100088.72;6181997;23;20058;-86
2023/03/19 07:23:47;;;;;;;0.57;0.57;;;;;;;7.96;100.00;100104.88;6184942;23;20012;-88
2023/03/19 07:26:13;;;;;;;1.98;1.80;;;;;;;8.08;98.91;100081.41;6164328;23;20439;-88
2023/03/19 07:28:38;;;;;;;1.90;1.50;;;;;;;8.05;94.39;100069.19;6156985;23;20400;-87
2023/03/19 07:31:04;;;;;;;2.38;2.17;;;;;;;7.97;96.92;100090.63;6158032;23;20027;-87
2023/03/19 07:33:30;;;;;;;1.02;1.00;;;;;;;8.07;95.17;100077.84;6184942;23;20446;-88
2023/03/19 07:35:55;;;;;;;0.95;0.90;;;;;;;8.19;93.25;100091.09;6206553;23;20011;-87
2023/03/19 07:38:21;;;;;;;1.40;1.27;;;;;;;8.12;90.95;100049.75;6208007;23;20017;-87
2023/03/19 07:40:47;;;;;;;3.50;1.77;;;;;;;8.27;90.36;100073.19;6159426;23;20087;-86
2023/03/19 07:43:12;;;;;;;3.17;1.88;;;;;;;8.13;88.43;100076.16;6207188;23;20020;-86
2023/03/19 07:45:38;;;;;;;1.13;0.68;;;;;;;7.95;91.65;100072.91;6189225;23;20155;-87
2023/03/19 07:48:04;;;;;;;2.13;1.98;;;;;;;8.16;91.06;100072.59;6185864;23;20040;-87
2023/03/19 07:50:30;;;;;;;4.72;2.00;;;;;;;8.15;90.19;100071.03;6184965;23;20334;-87
2023/03/19 07:52:56;;;;;;;0.45;0.45;;;;;;;8.14;88.48;100072.22;6184219;23;20043;-86
2023/03/19 07:55:21;;;;;;;1.80;1.40;;;;;;;8.08;87.61;100073.13;6181725;23;20119;-86
2023/03/19 07:57:47;;;;;;;0.80;0.80;;;;;;;7.69;89.56;100063.44;6158525;23;20392;-87
2023/03/19 08:00:13;;;;;;;1.38;1.27;;;;;;;7.66;88.30;100085.56;6184433;23;20557;-89
2023/03/19 08:02:39;;;;;;;0.73;0.73;;;;;;;7.73;88.25;100082.72;6185698;23;20019;-90
2023/03/19 08:05:05;;;;;;;1.65;1.55;;;;;;;7.55;87.92;100080.22;6207846;23;20013;-89
2023/03/19 08:07:31;;;;;;;0.43;0.43;;;;;;;7.53;88.64;100077.06;6206690;23;20086;-90
2023/03/19 08:09:57;;;;;;;2.63;2.42;;;;;;;7.66;90.02;100077.28;6159907;23;20075;-90
2023/03/19 08:12:23;;;;;;;1.25;1.15;;;;;;;7.63;87.98;100080.91;6211213;23;20386;-91
2023/03/19 08:14:49;;;;;;;1.35;1.13;;;;;;;7.68;88.74;100083.19;6183559;23;20032;-90
2023/03/19 08:17:15;;;;;;;0.68;0.68;;;;;;;7.82;88.05;100077.44;6183050;23;20015;-89
2023/03/19 08:19:40;;;;;;;1.25;1.23;;;;;;;8.19;86.94;100080.03;6181096;23;20059;-92
2023/03/19 08:22:06;;;;;;;0.75;0.75;;;;;;;8.23;81.74;100080.75;6208092;23;20082;-88
2023/03/19 08:24:32;;;;;;;0.93;0.88;;;;;;;8.35;82.45;100073.88;6182346;23;20082;-88
2023/03/19 08:26:57;;;;;;;0.93;0.93;;;;;;;8.37;81.94;100074.25;6205748;23;20443;-89
2023/03/19 08:29:25;;;;;;;0.15;0.15;;;;;;;8.22;81.53;100078.41;6185446;23;20107;-92
2023/03/19 08:31:52;;;;;;;1.02;1.02;;;;;;;8.18;84.07;100080.44;6184051;23;20100;-90
2023/03/19 08:34:17;;;;;;;2.38;1.95;;;;;;;8.20;84.42;100065.03;6182666;23;20404;-90
2023/03/19 08:36:43;;;;;;;0.80;0.80;;;;;;;8.15;82.00;100073.00;6180084;23;20102;-90
2023/03/19 08:39:09;;;;;;;2.17;2.00;;;;;;;7.85;85.50;100077.41;6159205;23;20011;-90
2023/03/19 08:41:34;;;;;;;0.82;0.82;;;;;;;7.96;87.37;100074.50;6185231;23;20350;-90
2023/03/19 08:44:00;;;;;;;0.10;0.10;;;;;;;8.10;86.38;100065.19;6187033;23;20009;-90
2023/03/19 08:46:26;;;;;;;1.40;1.17;;;;;;;8.43;84.63;100080.84;6212016;23;20020;-90
2023/03/19 08:48:52;;;;;;;1.33;1.23;;;;;;;8.39;83.96;100078.13;6210794;23;20032;-89
2023/03/19 08:51:18;;;;;;;1.70;1.60;;;;;;;8.50;83.89;100088.22;6217273;23;20017;-90
2023/03/19 08:53:43;;;;;;;1.05;1.02;;;;;;;8.27;83.43;100067.66;6160814;23;20407;-90
2023/03/19 08:56:09;;;;;;;1.23;1.15;;;;;;;8.57;83.17;100093.66;6207150;23;20171;-90
2023/03/19 08:58:35;;;;;;;1.92;1.63;;;;;;;8.90;80.81;100082.34;6209347;23;20443;-90
2023/03/19 09:01:05;;;;;;;1.52;1.42;;;;;;;8.84;78.11;100050.06;6181506;23;20008;-90
2023/03/19 09:03:31;;;;;;;8.05;1.42;;;;;;;9.31;77.10;100078.34;6209777;23;20024;-91
2023/03/19 09:05:59;;;;;;;17.15;1.23;;;;;;;9.28;75.97;100071.69;6207401;23;20096;-90
2023/03/19 09:08:25;;;;;;;1.40;1.30;;;;;;;9.14;79.06;100077.50;6207741;23;20092;-91
2023/03/19 09:10:54;;;;;;;2.60;2.40;;;;;;;9.29;76.78;100059.44;6183348;23;20005;-91
2023/03/19 09:13:20;;;;;;;2.28;2.08;;;;;;;9.57;75.73;100076.63;6185154;23;20036;-91
2023/03/19 09:15:46;;;;;;;1.92;1.83;;;;;;;9.73;72.93;100071.91;6159128;23;20416;-91
2023/03/19 09:18:11;;;;;;;1.50;0.95;;;;;;;9.84;72.47;100077.19;6209227;23;20028;-90
2023/03/19 09:20:37;;;;;;;1.08;1.08;;;;;;;9.90;72.55;100060.84;6207914;23;20016;-89
2023/03/19 09:23:03;;;;;;;2.13;1.48;;;;;;;10.10;73.06;100059.56;6183854;23;20039;-90
2023/03/19 09:25:28;;;;;;;1.75;1.65;;;;;;;10.16;71.77;100063.38;6207864;23;20009;-90
2023/03/19 09:27:54;;;;;;;0.43;0.43;;;;;;;9.60;71.82;100025.91;6209268;23;20087;-89
2023/03/19 09:30:20;;;;;;;0.50;0.50;;;;;;;9.69;74.13;100070.41;6210366;23;20453;-90
2023/03/19 09:32:46;;;;;;;1.88;1.75;;;;;;;9.77;72.87;100067.06;6160437;23;20393;-89
2023/03/19 09:35:11;;;;;;;2.10;1.95;;;;;;;10.00;73.33;100068.13;6183477;23;20096;-89
2023/03/19 09:37:37;;;;;;;1.60;1.27;;;;;;;10.44;71.69;100067.44;6185089;23;20008;-89
2023/03/19 09:40:04;;;;;;;1.45;1.27;;;;;;;10.85;68.52;100052.09;6184771;23;20090;-90
2023/03/19 09:43:11;;;;;;;5.18;2.15;;;;;;;11.33;62.83;100060.22;6186849;23;20332;-90
2023/03/19 09:45:36;;;;;;;0.60;0.47;;;;;;;11.50;60.06;100055.34;6184587;23;20055;-91
2023/03/19 09:48:06;;;;;;;2.67;1.75;;;;;;;11.29;61.29;100028.22;6186648;23;20012;-90
2023/03/19 09:50:36;;;;;;;2.40;1.73;;;;;;;11.22;62.08;100060.53;6160387;23;20024;-89
2023/03/19 09:53:17;;;;;;;4.50;2.47;;;;;;;11.18;63.12;100054.31;6186297;23;20025;-91
2023/03/19 09:55:59;;;;;;;4.22;1.58;;;;;;;11.27;63.05;100061.22;6186133;23;20032;-90
2023/03/19 09:58:30;;;;;;;2.22;1.25;;;;;;;11.02;62.48;100029.41;6163476;23;20021;-91
2023/03/19 10:00:56;;;;;;;3.15;2.33;;;;;;;11.35;62.86;100062.56;6185062;23;20086;-90
2023/03/19 10:03:50;;;;;;;1.33;1.25;;;;;;;11.70;61.98;100058.72;6211982;23;20008;-90
2023/03/19 10:06:28;;;;;;;1.30;1.20;;;;;;;11.82;61.09;100060.75;6187058;23;20012;-89
2023/03/19 10:09:15;;;;;;;1.13;1.10;;;;;;;11.78;60.77;100062.84;6159645;23;20401;-90
2023/03/19 10:11:43;;;;;;;1.52;1.42;;;;;;;11.89;59.71;100054.94;6212842;23;20013;-89
2023/03/19 10:14:37;;;;;;;1.15;0.93;;;;;;;12.44;58.78;100048.00;6209361;23;20092;-90
2023/03/19 10:17:06;;;;;;;2.20;2.10;;;;;;;12.46;55.26;100039.19;6210012;23;20458;-89
2023/03/19 10:19:44;;;;;;;0.52;0.52;;;;;;;12.54;54.42;100034.91;6209890;23;20092;-90
2023/03/19 10:22:18;;;;;;;2.97;2.15;;;;;;;12.48;55.87;100031.16;6210925;23;20016;-90
2023/03/19 10:24:43;;;;;;;;;;;;;;;12.80;55.85;100027.25;6208186;23;20013;-89
2023/03/19 10:27:15;;;;;;;1.90;0.93;;;;;;;13.06;52.66;100023.88;6183978;23;19961;-89
2023/03/19 10:29:41;;;;;;;1.38;1.27;;;;;;;13.06;52.81;100021.09;6208637;23;20028;-90
2023/03/19 10:32:18;;;;;;;2.80;2.60;;;;;;;13.23;51.38;100009.78;6210927;23;20032;-91
2023/03/19 10:34:47;;;;;;;0.85;0.85;;;;;;;13.02;52.08;99989.06;6209314;23;20354;-92
2023/03/19 10:37:25;;;;;;;1.80;1.45;;;;;;;13.27;51.55;100008.41;6211265;23;20016;-87
2023/03/19 10:39:55;;;;;;;1.52;1.42;;;;;;;13.27;51.41;100004.84;6159168;23;20082;-88
2023/03/19 10:42:40;;;;;;;0.75;0.75;;;;;;;13.34;52.08;100001.81;6211879;23;20044;-88
2023/03/19 10:45:34;;;;;;;0.80;0.80;;;;;;;13.14;51.29;100004.94;6211857;23;20012;-88
2023/03/19 10:48:02;;;;;;;2.50;1.85;;;;;;;12.93;52.40;99995.34;6210068;23;20020;-88
2023/03/19 10:51:02;;;;;;;1.70;1.58;;;;;;;12.84;52.45;99978.59;6209231;23;20026;-87
2023/03/19 10:53:32;;;;;;;2.60;2.38;;;;;;;13.40;52.22;100005.53;6177973;23;20063;-88
2023/03/19 10:56:18;;;;;;;1.55;0.85;;;;;;;13.61;50.44;100001.94;6211692;23;20020;-88
2023/03/19 10:58:58;;;;;;;2.38;1.38;;;;;;;13.61;50.51;99993.56;6210894;23;20016;-87
2023/03/19 11:01:38;;;;;;;1.48;0.80;;;;;;;13.78;50.62;99986.50;6211776;23;20009;-88
2023/03/19 11:04:20;;;;;;;1.58;1.48;;;;;;;13.96;49.64;100000.50;6211041;23;20013;-91
2023/03/19 11:06:54;;;;;;;4.45;2.58;;;;;;;13.96;48.98;99994.91;6186017;23;20055;-91
2023/03/19 11:09:22;;;;;;;2.83;2.38;;;;;;;14.32;48.43;99985.03;6210746;23;20017;-92
2023/03/19 11:11:52;;;;;;;7.28;1.48;;;;;;;13.49;48.53;99952.66;6185014;23;20012;-93
2023/03/19 11:14:26;;;;;;;1.80;0.98;;;;;;;13.74;49.80;99980.31;6160836;23;20020;-94
2023/03/19 11:17:13;;;;;;;1.67;1.27;;;;;;;13.85;49.75;99963.91;6211656;23;20025;-93
2023/03/19 11:19:40;;;;;;;0.47;0.47;;;;;;;13.66;49.61;99945.59;6185030;23;20016;-92
2023/03/19 11:22:06;;;;;;;2.50;1.45;;;;;;;13.72;49.24;99954.88;6185103;23;20096;-92
2023/03/19 11:24:33;;;;;;;1.35;0.95;;;;;;;13.89;49.48;99928.28;6211182;23;20048;-94
2023/03/19 11:26:59;;;;;;;4.70;1.52;;;;;;;13.98;48.66;99917.16;6184951;23;20066;-92
2023/03/19 11:29:26;;;;;;;1.17;1.13;;;;;;;14.51;47.77;99942.00;6209229;23;20087;-92
2023/03/19 11:32:21;;;;;;;2.47;1.83;;;;;;;14.49;47.34;99908.19;6209933;23;20020;-92
2023/03/19 11:34:50;;;;;;;2.53;1.25;;;;;;;14.90;45.92;99929.84;6210548;23;20020;-91
2023/03/19 11:37:27;;;;;;;0.93;0.73;;;;;;;14.68;45.17;99898.53;6195413;23;20013;-93
2023/03/19 11:40:12;;;;;;;2.72;1.92;;;;;;;15.35;45.54;99925.34;6216974;23;20087;-92
2023/03/19 11:42:41;;;;;;;1.83;1.67;;;;;;;15.83;43.79;99931.78;6206650;23;20010;-91
2023/03/19 11:45:18;;;;;;;0.73;0.73;;;;;;;15.98;42.40;99929.06;6233298;23;20032;-93
2023/03/19 11:48:03;;;;;;;0.68;0.60;;;;;;;15.81;42.22;99918.28;6184858;23;20044;-92
2023/03/19 11:50:39;;;;;;;0.95;0.95;;;;;;;16.02;43.06;99919.22;6209850;23;20009;-93
2023/03/19 11:53:13;;;;;;;1.33;1.23;;;;;;;16.11;41.74;99913.56;6185944;23;20016;-92